Time;durP1;ratioP1;P1;durP2;ratioP2;P2;SDS_P1;SDS_P2;PMS_P1;PMS_P2;Temp;Humidity;BMP_temperature;BMP_pressure;BME280_temperature;BME280_humidity;BME280_pressure;Samples;Min_cycle;Max_cycle;Signal;HPM_P1;HPM_P2
2022/11/07 00:01:14;;;;;;;2.05;1.40;;;;;;;8.88;96.15;95449.31;5015943;28;20810;-75
2022/11/07 00:03:39;;;;;;;3.13;1.38;;;;;;;8.81;95.58;95458.25;5026966;28;20723;-75
2022/11/07 00:06:06;;;;;;;1.95;1.30;;;;;;;8.95;96.02;95460.34;4998511;28;20041;-73
2022/11/07 00:08:31;;;;;;;3.40;1.50;;;;;;;8.92;94.31;95455.63;5017812;28;20120;-74
2022/11/07 00:10:58;;;;;;;2.60;1.45;;;;;;;8.95;93.14;95455.09;5005719;28;20042;-74
2022/11/07 00:13:25;;;;;;;2.33;1.40;;;;;;;9.07;92.22;95463.53;5016837;28;20112;-74
2022/11/07 00:15:51;;;;;;;2.83;1.40;;;;;;;8.91;99.03;95459.31;5011660;28;20491;-74
2022/11/07 00:18:16;;;;;;;2.58;1.50;;;;;;;8.79;95.37;95462.97;5017313;28;20038;-75
2022/11/07 00:20:42;;;;;;;2.53;1.55;;;;;;;8.63;100.00;95458.72;4993191;28;20038;-74
2022/11/07 00:23:07;;;;;;;2.45;1.60;;;;;;;8.49;100.00;95467.06;5014919;28;20115;-75
2022/11/07 00:25:33;;;;;;;2.70;1.52;;;;;;;8.28;100.00;95462.75;5011166;28;20062;-75
2022/11/07 00:27:58;;;;;;;3.30;1.67;;;;;;;7.86;100.00;95466.97;5014302;28;20037;-75
2022/11/07 00:30:24;;;;;;;2.97;1.58;;;;;;;7.68;100.00;95465.53;4990502;28;20043;-75
2022/11/07 00:32:49;;;;;;;2.58;1.60;;;;;;;7.58;100.00;95465.47;5011322;28;20046;-75
2022/11/07 00:35:15;;;;;;;3.47;1.80;;;;;;;7.56;100.00;95467.56;5007664;28;20130;-75
2022/11/07 00:37:40;;;;;;;2.78;1.50;;;;;;;7.53;100.00;95478.53;5006242;28;20072;-75
2022/11/07 00:40:07;;;;;;;1.92;1.30;;;;;;;7.65;100.00;95471.28;5008158;28;20415;-75
2022/11/07 00:42:32;;;;;;;3.88;1.60;;;;;;;7.77;100.00;95474.53;5010979;28;20117;-75
2022/11/07 00:44:58;;;;;;;1.85;1.33;;;;;;;8.06;100.00;95482.03;5018700;28;20048;-75
2022/11/07 00:47:23;;;;;;;2.50;1.42;;;;;;;8.18;100.00;95494.16;5011549;28;20038;-75
2022/11/07 00:49:49;;;;;;;2.45;1.30;;;;;;;8.13;100.00;95490.47;5015827;28;20409;-75
2022/11/07 00:52:14;;;;;;;2.95;1.60;;;;;;;7.80;100.00;95487.13;5017628;28;20064;-75
2022/11/07 00:54:41;;;;;;;3.75;1.60;;;;;;;8.04;100.00;95494.59;5019981;28;20121;-75
2022/11/07 00:57:06;;;;;;;3.13;1.50;;;;;;;8.39;100.00;95489.78;5010349;28;20038;-75
2022/11/07 00:59:32;;;;;;;2.67;1.50;;;;;;;8.31;100.00;95498.94;5012576;28;20057;-75
2022/11/07 01:01:57;;;;;;;2.60;1.60;;;;;;;8.59;100.00;95494.38;4998051;28;20054;-75
2022/11/07 01:07:07;;;;;;;2.30;1.58;;;;;;;8.78;100.00;95508.63;5014669;28;20048;-75
2022/11/07 01:09:32;;;;;;;2.00;1.33;;;;;;;9.14;100.00;95506.09;5015416;28;20058;-74
2022/11/07 01:11:58;;;;;;;2.97;1.70;;;;;;;9.16;100.00;95497.94;5009498;28;20042;-74
2022/11/07 01:14:24;;;;;;;2.47;1.40;;;;;;;9.31;100.00;95499.78;5014335;28;20053;-74
2022/11/07 01:16:50;;;;;;;3.58;1.30;;;;;;;9.67;100.00;95505.88;5017936;28;20045;-75
2022/11/07 01:19:17;;;;;;;4.45;1.55;;;;;;;9.52;100.00;95509.28;5023524;28;20050;-74
2022/11/07 01:21:43;;;;;;;4.15;1.70;;;;;;;9.47;100.00;95509.28;5014463;28;20530;-74
2022/11/07 01:24:11;;;;;;;3.42;1.60;;;;;;;9.43;100.00;95512.69;5015861;28;20076;-74
2022/11/07 01:26:38;;;;;;;4.80;1.63;;;;;;;9.49;100.00;95507.16;5013089;28;20109;-73
2022/11/07 01:29:05;;;;;;;4.13;1.80;;;;;;;9.38;100.00;95505.59;5020796;28;20046;-75
2022/11/07 01:31:30;;;;;;;4.63;1.88;;;;;;;9.47;100.00;95509.28;5013107;28;20068;-75
2022/11/07 01:33:57;;;;;;;4.88;1.75;;;;;;;9.59;100.00;95516.13;5014014;28;20046;-75
2022/11/07 01:36:22;;;;;;;4.63;1.80;;;;;;;9.58;100.00;95511.91;5018394;28;20043;-75
2022/11/07 01:38:48;;;;;;;4.25;1.88;;;;;;;9.47;100.00;95519.00;5005803;28;20057;-75
2022/11/07 01:41:20;;;;;;;3.38;1.90;;;;;;;9.44;100.00;95509.81;5026123;28;20041;-75
2022/11/07 01:44:00;;;;;;;3.65;1.70;;;;;;;9.40;100.00;95519.25;5017469;28;20050;-76
2022/11/07 01:46:44;;;;;;;3.38;1.70;;;;;;;9.37;100.00;95514.53;5017113;28;20037;-76
2022/11/07 01:49:16;;;;;;;4.13;1.80;;;;;;;9.36;100.00;95518.19;5020894;28;20061;-75
2022/11/07 01:51:57;;;;;;;4.75;2.47;;;;;;;9.16;100.00;95527.59;5013430;28;20042;-76
2022/11/07 01:54:26;;;;;;;4.05;1.85;;;;;;;9.07;100.00;95526.53;5020782;28;20040;-76
2022/11/07 01:56:55;;;;;;;5.13;2.15;;;;;;;9.06;100.00;95534.69;5020130;28;20041;-75
2022/11/07 01:59:26;;;;;;;6.43;1.83;;;;;;;9.01;100.00;95530.22;5019435;28;20064;-73
2022/11/07 02:01:52;;;;;;;4.68;2.30;;;;;;;9.03;100.00;95530.72;5003753;28;20042;-73
2022/11/07 02:04:20;;;;;;;4.30;1.80;;;;;;;9.15;100.00;95530.50;4995991;28;20103;-74
2022/11/07 02:06:53;;;;;;;4.88;2.03;;;;;;;9.11;100.00;95535.47;5016090;28;20034;-73
2022/11/07 02:09:18;;;;;;;5.13;2.05;;;;;;;9.23;100.00;95535.25;5013656;28;20038;-74
2022/11/07 02:11:44;;;;;;;2.90;1.80;;;;;;;9.19;100.00;95526.31;5016159;28;20121;-73
2022/11/07 02:14:14;;;;;;;3.90;1.92;;;;;;;9.25;100.00;95537.59;5022228;28;20048;-73
2022/11/07 02:16:40;;;;;;;3.92;2.03;;;;;;;9.21;100.00;95536.53;5010990;28;20100;-73
2022/11/07 02:19:12;;;;;;;3.60;2.20;;;;;;;9.24;100.00;95530.78;5015472;28;20038;-74
2022/11/07 02:21:57;;;;;;;3.72;1.92;;;;;;;9.20;100.00;95533.13;5017302;28;20056;-75
2022/11/07 02:24:28;;;;;;;5.38;2.03;;;;;;;9.07;100.00;95526.53;5023223;28;20040;-75
2022/11/07 02:26:56;;;;;;;4.75;2.10;;;;;;;9.15;100.00;95527.88;5010692;28;20037;-75
2022/11/07 02:29:22;;;;;;;4.93;2.20;;;;;;;9.07;100.00;95526.53;5018621;28;20072;-75
2022/11/07 02:32:02;;;;;;;4.00;2.00;;;;;;;9.04;100.00;95527.06;5014147;28;20061;-75
2022/11/07 02:34:28;;;;;;;3.80;1.85;;;;;;;8.97;100.00;95531.78;5013157;28;20069;-75
2022/11/07 02:36:54;;;;;;;4.78;2.13;;;;;;;8.90;100.00;95524.13;5021068;28;20053;-75
2022/11/07 02:39:20;;;;;;;4.90;2.40;;;;;;;8.86;100.00;95522.28;5019210;28;20056;-75
2022/11/07 02:41:47;;;;;;;4.60;2.28;;;;;;;8.75;100.00;95530.13;5003781;28;20487;-75
2022/11/07 02:44:13;;;;;;;5.43;2.50;;;;;;;8.65;100.00;95530.88;5025710;28;20125;-75
2022/11/07 02:46:39;;;;;;;5.10;2.00;;;;;;;8.63;100.00;95522.47;5011389;28;20053;-75
2022/11/07 02:49:05;;;;;;;3.97;2.10;;;;;;;8.65;100.00;95525.63;5000242;28;20038;-75
2022/11/07 02:51:31;;;;;;;5.13;2.40;;;;;;;8.76;100.00;95530.91;5022202;28;20033;-75
2022/11/07 02:53:56;;;;;;;5.70;2.33;;;;;;;8.70;100.00;95526.69;5003648;28;20464;-74
2022/11/07 02:56:22;;;;;;;4.90;2.20;;;;;;;8.60;100.00;95532.69;5018760;28;20562;-75
2022/11/07 02:58:48;;;;;;;4.30;2.10;;;;;;;8.59;100.00;95537.16;5013964;28;20034;-75
2022/11/07 03:01:14;;;;;;;4.05;2.10;;;;;;;8.59;100.00;95531.91;5006026;28;20045;-75
2022/11/07 03:03:42;;;;;;;4.85;2.10;;;;;;;8.55;100.00;95540.50;5028700;28;20099;-75
2022/11/07 03:06:11;;;;;;;4.88;2.17;;;;;;;8.65;100.00;95536.13;5012065;28;20042;-75
2022/11/07 03:08:36;;;;;;;6.82;2.15;;;;;;;8.60;100.00;95532.69;5012565;28;20499;-75
2022/11/07 03:11:03;;;;;;;5.18;2.00;;;;;;;8.71;100.00;95539.56;5026591;28;20102;-74
2022/11/07 03:13:28;;;;;;;5.22;2.08;;;;;;;8.63;100.00;95534.78;5031516;28;20411;-74
2022/11/07 03:15:54;;;;;;;5.25;2.17;;;;;;;8.64;100.00;95528.50;5016570;28;20042;-73
2022/11/07 03:18:20;;;;;;;6.45;2.53;;;;;;;8.62;100.00;95530.56;5006395;28;20502;-73
2022/11/07 03:20:46;;;;;;;4.18;2.00;;;;;;;8.77;100.00;95522.78;5011474;28;20049;-73
2022/11/07 03:23:11;;;;;;;6.22;1.90;;;;;;;8.91;100.00;95524.94;5023929;28;20037;-73
2022/11/07 03:25:37;;;;;;;5.05;2.05;;;;;;;8.91;100.00;95522.31;5015606;28;20053;-73
2022/11/07 03:28:03;;;;;;;3.80;2.08;;;;;;;8.89;100.00;95532.25;5011650;28;20042;-74
2022/11/07 03:30:29;;;;;;;3.70;2.10;;;;;;;8.82;100.00;95533.28;5006164;28;20495;-74
2022/11/07 03:32:55;;;;;;;4.97;2.03;;;;;;;8.81;100.00;95536.97;5025802;28;20207;-74
2022/11/07 03:35:21;;;;;;;3.97;1.95;;;;;;;8.78;100.00;95539.31;5023479;28;20042;-73
2022/11/07 03:37:48;;;;;;;4.03;2.20;;;;;;;8.73;100.00;95537.44;5010857;28;20038;-74
2022/11/07 03:40:15;;;;;;;6.22;2.33;;;;;;;8.69;100.00;95541.63;5013509;28;20502;-74
2022/11/07 03:42:42;;;;;;;3.63;1.92;;;;;;;8.62;100.00;95538.44;5027093;28;20049;-73
2022/11/07 03:45:08;;;;;;;4.43;1.90;;;;;;;8.71;100.00;95550.03;5027950;28;20041;-73
2022/11/07 03:47:35;;;;;;;3.22;1.83;;;;;;;8.63;100.00;95553.16;5009315;28;20569;-74
2022/11/07 03:50:01;;;;;;;6.43;2.13;;;;;;;8.65;100.00;95551.06;5018085;28;20388;-73
2022/11/07 03:52:26;;;;;;;5.25;2.00;;;;;;;8.57;100.00;95554.97;5025840;28;20045;-73
2022/11/07 03:54:52;;;;;;;3.72;2.03;;;;;;;8.55;100.00;95541.31;5020888;28;20037;-73
2022/11/07 03:57:17;;;;;;;5.15;2.30;;;;;;;8.44;100.00;95556.19;5024678;28;20046;-73
2022/11/07 03:59:43;;;;;;;4.25;1.90;;;;;;;8.39;100.00;95558.78;5008263;28;20483;-73
2022/11/07 04:02:08;;;;;;;4.03;1.90;;;;;;;8.44;100.00;95561.44;5008100;28;20127;-72
2022/11/07 04:04:34;;;;;;;3.15;1.80;;;;;;;8.15;100.00;95563.59;5013466;28;20128;-73
2022/11/07 04:06:59;;;;;;;3.33;1.90;;;;;;;8.02;100.00;95570.06;5000092;28;20499;-73
2022/11/07 04:09:25;;;;;;;3.88;1.98;;;;;;;7.84;100.00;95567.84;5005061;28;20038;-74
2022/11/07 04:17:18;;;;;;;5.00;2.15;;;;;;;7.23;100.00;95574.09;5010846;28;20045;-74
2022/11/07 04:19:50;;;;;;;3.03;1.80;;;;;;;7.08;100.00;95578.13;5023030;28;20045;-73
2022/11/07 04:22:16;;;;;;;4.22;2.10;;;;;;;6.96;100.00;95574.84;5002732;28;20509;-73
2022/11/07 04:24:43;;;;;;;3.95;2.17;;;;;;;6.75;100.00;95582.47;5024216;28;20049;-74
2022/11/07 04:29:55;;;;;;;4.60;1.98;;;;;;;6.46;100.00;95591.47;4997553;28;20038;-73
2022/11/07 04:32:23;;;;;;;4.65;2.13;;;;;;;6.37;100.00;95584.03;5024734;28;20491;-73
2022/11/07 04:34:50;;;;;;;4.65;2.08;;;;;;;6.32;100.00;95581.38;5010740;28;20507;-74
2022/11/07 04:37:15;;;;;;;4.53;2.28;;;;;;;6.21;100.00;95584.88;5004113;28;20489;-74
2022/11/07 04:39:41;;;;;;;4.30;2.05;;;;;;;6.00;100.00;95579.31;5006742;28;20050;-74
2022/11/07 04:42:06;;;;;;;3.67;2.00;;;;;;;5.99;100.00;95593.44;5011117;28;20042;-74
2022/11/07 04:44:32;;;;;;;4.78;2.40;;;;;;;5.86;100.00;95598.91;5026398;28;20041;-74
2022/11/07 04:46:57;;;;;;;5.13;2.33;;;;;;;5.77;100.00;95600.34;5018962;28;20042;-74
2022/11/07 04:49:23;;;;;;;5.72;2.08;;;;;;;5.82;100.00;95603.03;5024437;28;20093;-74
2022/11/07 04:51:49;;;;;;;3.47;1.80;;;;;;;5.57;100.00;95591.13;4997598;28;20046;-74
2022/11/07 04:54:15;;;;;;;4.38;2.22;;;;;;;5.56;100.00;95594.78;5009652;28;20045;-73
2022/11/07 04:56:41;;;;;;;3.33;1.98;;;;;;;5.46;100.00;95599.81;5012899;28;20046;-73
2022/11/07 04:59:07;;;;;;;5.30;2.08;;;;;;;5.28;100.00;95593.75;5012585;28;20443;-73
2022/11/07 05:01:32;;;;;;;6.57;1.90;;;;;;;5.12;100.00;95594.53;5005494;28;20037;-73
2022/11/07 05:03:58;;;;;;;5.88;2.38;;;;;;;5.12;100.00;95610.16;5010117;28;20062;-73
2022/11/07 05:06:24;;;;;;;5.82;2.25;;;;;;;5.06;100.00;95605.84;5010849;28;20046;-73
2022/11/07 05:08:50;;;;;;;4.70;2.00;;;;;;;4.94;100.00;95598.06;5009678;28;20076;-73
2022/11/07 05:11:15;;;;;;;4.63;2.25;;;;;;;4.88;100.00;95605.00;5009370;28;20049;-73
2022/11/07 05:13:41;;;;;;;6.85;2.58;;;;;;;4.88;100.00;95599.78;5004240;28;20092;-74
2022/11/07 05:16:18;;;;;;;6.65;2.13;;;;;;;4.86;100.00;95607.06;5011470;28;20084;-73
2022/11/07 05:18:44;;;;;;;7.97;2.13;;;;;;;4.81;100.00;95609.56;5016121;28;20434;-73
2022/11/07 05:21:10;;;;;;;3.50;2.10;;;;;;;4.76;100.00;95612.84;5021584;28;20042;-73
2022/11/07 05:23:35;;;;;;;5.47;2.20;;;;;;;4.73;100.00;95612.53;5009976;28;20500;-77
2022/11/07 05:26:01;;;;;;;6.13;2.53;;;;;;;4.63;100.00;95613.91;5002411;28;20038;-75
2022/11/07 05:28:29;;;;;;;8.00;2.72;;;;;;;4.65;100.00;95617.06;5017757;28;20046;-74
2022/11/07 05:30:59;;;;;;;5.50;2.55;;;;;;;4.52;100.00;95617.31;5009294;28;20120;-73
2022/11/07 05:33:25;;;;;;;10.80;2.90;;;;;;;4.49;100.00;95623.75;5010221;28;20042;-73
2022/11/07 05:35:51;;;;;;;8.27;2.80;;;;;;;4.39;100.00;95625.38;5020711;28;20073;-73
2022/11/07 05:38:16;;;;;;;5.55;2.80;;;;;;;4.41;100.00;95625.91;5010251;28;20042;-74
2022/11/07 05:40:42;;;;;;;7.07;2.90;;;;;;;4.46;100.00;95628.66;5009303;28;20038;-74
2022/11/07 05:43:11;;;;;;;5.68;3.10;;;;;;;4.33;100.00;95617.41;5009662;28;20042;-74
2022/11/07 05:45:37;;;;;;;8.48;2.67;;;;;;;4.47;100.00;95619.81;5013171;28;20124;-74
2022/11/07 05:48:05;;;;;;;7.85;2.72;;;;;;;4.46;100.00;95628.66;5017820;28;20049;-74
2022/11/07 05:50:31;;;;;;;10.60;3.10;;;;;;;4.36;100.00;95623.22;5007950;28;20491;-74
2022/11/07 05:52:57;;;;;;;6.03;2.80;;;;;;;4.41;100.00;95621.50;5016661;28;20042;-74
2022/11/07 05:55:23;;;;;;;7.47;2.95;;;;;;;4.32;100.00;95639.31;5019690;28;20399;-74
2022/11/07 05:57:50;;;;;;;6.75;2.60;;;;;;;4.31;100.00;95632.50;5008371;28;20057;-74
2022/11/07 06:00:17;;;;;;;9.93;3.63;;;;;;;4.40;100.00;95629.56;4994824;28;20082;-75
2022/11/07 06:02:42;;;;;;;6.80;2.50;;;;;;;4.45;100.00;95632.25;5005759;28;20046;-75
2022/11/07 06:05:08;;;;;;;6.15;3.00;;;;;;;4.41;100.00;95636.34;5018296;28;20797;-76
2022/11/07 06:07:38;;;;;;;7.63;2.92;;;;;;;4.46;100.00;95636.47;5015674;28;20061;-73
2022/11/07 06:10:07;;;;;;;8.35;2.80;;;;;;;4.44;100.00;95641.09;5017144;28;20412;-73
2022/11/07 06:12:33;;;;;;;7.60;2.50;;;;;;;4.30;100.00;95635.34;5017192;28;20048;-73
2022/11/07 06:14:59;;;;;;;6.05;2.80;;;;;;;4.21;100.00;95639.28;5012669;28;20045;-73
2022/11/07 06:17:24;;;;;;;9.30;2.88;;;;;;;4.16;100.00;95638.13;5017206;28;20041;-72
2022/11/07 06:19:50;;;;;;;7.13;2.95;;;;;;;4.11;100.00;95642.47;5014625;28;20480;-73
2022/11/07 06:22:15;;;;;;;9.75;2.90;;;;;;;4.02;100.00;95643.78;5028684;28;20045;-72
2022/11/07 06:24:41;;;;;;;8.77;3.03;;;;;;;3.99;100.00;95645.84;5017133;28;20037;-73
2022/11/07 06:27:07;;;;;;;7.70;3.20;;;;;;;4.01;100.00;95647.41;5020414;28;20052;-73
2022/11/07 06:29:32;;;;;;;5.65;2.47;;;;;;;3.94;100.00;95647.53;5017293;28;20049;-73
2022/11/07 06:31:58;;;;;;;8.38;3.10;;;;;;;3.98;100.00;95654.66;5026936;28;20478;-73
2022/11/07 06:34:23;;;;;;;7.22;2.92;;;;;;;4.01;100.00;95657.81;5016112;28;20046;-73
2022/11/07 06:36:55;;;;;;;8.32;3.30;;;;;;;3.98;100.00;95657.25;5023709;28;20045;-74
2022/11/07 06:39:20;;;;;;;6.80;3.17;;;;;;;3.94;100.00;95658.72;5016595;28;20108;-77
2022/11/07 06:41:50;;;;;;;5.93;2.50;;;;;;;3.95;100.00;95649.91;5027606;28;20045;-73
2022/11/07 06:44:16;;;;;;;9.75;3.25;;;;;;;4.11;100.00;95655.47;5008627;28;20372;-74
2022/11/07 06:46:45;;;;;;;6.30;2.92;;;;;;;4.28;100.00;95651.19;5014759;28;20042;-72
2022/11/07 06:49:12;;;;;;;8.90;2.90;;;;;;;4.28;100.00;95664.22;5023635;28;20099;-74
2022/11/07 06:51:38;;;;;;;6.18;2.60;;;;;;;4.93;100.00;95665.09;5030823;28;20053;-73
2022/11/07 06:54:03;;;;;;;5.57;2.90;;;;;;;5.03;100.00;95654.88;5012203;28;20495;-73
2022/11/07 06:56:29;;;;;;;5.65;2.42;;;;;;;5.29;100.00;95665.81;5023421;28;20041;-75
2022/11/07 06:58:54;;;;;;;7.80;2.97;;;;;;;5.27;100.00;95670.47;5015689;28;20459;-72
2022/11/07 07:01:20;;;;;;;7.78;3.35;;;;;;;5.02;100.00;95679.34;5006519;28;20120;-73
2022/11/07 07:03:45;;;;;;;7.95;2.90;;;;;;;4.81;100.00;95678.16;5021631;28;20046;-73
2022/11/07 07:06:13;;;;;;;9.25;3.25;;;;;;;4.81;100.00;95677.34;5026664;28;20038;-73
2022/11/07 07:08:39;;;;;;;20.65;7.93;;;;;;;4.81;100.00;95687.78;5017506;28;20042;-74
2022/11/07 07:11:08;;;;;;;7.20;2.92;;;;;;;4.78;100.00;95686.41;5023002;28;20042;-74
2022/11/07 07:13:33;;;;;;;5.68;2.60;;;;;;;4.73;100.00;95695.97;5031068;28;20069;-73
2022/11/07 07:15:59;;;;;;;11.75;4.05;;;;;;;4.67;100.00;95690.63;5021974;28;20472;-73
2022/11/07 07:18:26;;;;;;;12.13;5.32;;;;;;;4.79;100.00;95689.84;5013015;28;20038;-74
2022/11/07 07:21:00;;;;;;;4.47;2.63;;;;;;;4.78;100.00;95680.41;5017211;28;20133;-73
2022/11/07 07:23:26;;;;;;;3.78;2.30;;;;;;;4.79;100.00;95695.81;5013201;28;20133;-73
2022/11/07 07:25:51;;;;;;;9.38;2.50;;;;;;;4.81;100.00;95699.03;4997249;28;20045;-72
2022/11/07 07:28:17;;;;;;;9.82;2.17;;;;;;;4.86;100.00;95706.16;5000708;28;20049;-73
2022/11/07 07:30:42;;;;;;;9.05;2.80;;;;;;;4.91;100.00;95698.41;5012889;28;20072;-73
2022/11/07 07:33:08;;;;;;;4.32;2.28;;;;;;;4.96;100.00;95695.94;5011453;28;20061;-75
2022/11/07 07:35:34;;;;;;;4.68;2.28;;;;;;;5.12;100.00;95693.66;5007104;28;20056;-73
2022/11/07 07:37:59;;;;;;;3.67;1.95;;;;;;;5.14;100.00;95696.81;5020513;28;20040;-73
2022/11/07 07:40:25;;;;;;;3.63;2.10;;;;;;;5.15;100.00;95698.41;5025463;28;20053;-74
2022/11/07 07:42:50;;;;;;;4.72;1.85;;;;;;;5.92;100.00;95699.88;5014838;28;20037;-73
2022/11/07 07:45:16;;;;;;;3.97;1.92;;;;;;;6.47;100.00;95702.88;5028623;28;20053;-72
2022/11/07 07:47:41;;;;;;;4.25;1.63;;;;;;;6.52;100.00;95697.69;5026815;28;20046;-74
2022/11/07 07:50:09;;;;;;;3.42;1.45;;;;;;;7.11;100.00;95695.41;5020172;28;20085;-73
2022/11/07 07:52:35;;;;;;;2.60;1.45;;;;;;;7.33;100.00;95694.63;5011382;28;20042;-73
2022/11/07 07:55:00;;;;;;;2.47;1.30;;;;;;;7.85;100.00;95692.56;5018180;28;20061;-73
2022/11/07 07:57:26;;;;;;;3.47;1.35;;;;;;;8.00;100.00;95687.44;5012909;28;20057;-73
2022/11/07 07:59:52;;;;;;;2.72;1.38;;;;;;;8.37;100.00;95685.94;5009057;28;20101;-73
2022/11/07 08:02:17;;;;;;;1.98;1.33;;;;;;;8.41;100.00;95687.81;5022967;28;20037;-73
2022/11/07 08:04:43;;;;;;;2.28;1.17;;;;;;;8.66;100.00;95691.69;5017433;28;20054;-72
2022/11/07 08:07:09;;;;;;;2.25;1.33;;;;;;;8.92;100.00;95694.47;5016804;28;20499;-73
2022/11/07 08:09:35;;;;;;;1.80;1.10;;;;;;;9.10;100.00;95683.53;5012578;28;20045;-71
2022/11/07 08:12:05;;;;;;;2.22;1.40;;;;;;;9.21;100.00;95688.84;5024505;28;20045;-71
2022/11/07 08:14:31;;;;;;;2.28;1.13;;;;;;;9.46;100.00;95688.16;5012538;28;20084;-73
2022/11/07 08:16:57;;;;;;;1.95;1.15;;;;;;;9.48;100.00;95684.25;5010114;28;20042;-71
2022/11/07 08:19:23;;;;;;;2.03;0.95;;;;;;;9.70;100.00;95678.00;5013729;28;22016;-72
2022/11/07 08:21:48;;;;;;;8.32;1.40;;;;;;;9.76;100.00;95695.34;5009177;28;20041;-71
2022/11/07 08:24:14;;;;;;;2.13;1.30;;;;;;;9.83;100.00;95690.63;5021471;28;20049;-72
2022/11/07 08:26:40;;;;;;;3.22;1.65;;;;;;;9.93;100.00;95686.44;5026969;28;20041;-72
2022/11/07 08:29:05;;;;;;;2.22;1.50;;;;;;;10.00;100.00;95695.66;5017288;28;20177;-72
2022/11/07 08:31:31;;;;;;;1.27;1.13;;;;;;;10.14;100.00;95695.97;5012853;28;20042;-72
2022/11/07 08:33:58;;;;;;;2.53;1.33;;;;;;;10.18;100.00;95691.72;5020331;28;20045;-75
2022/11/07 08:36:24;;;;;;;4.93;1.42;;;;;;;10.26;100.00;95698.31;5021370;28;20114;-71
2022/11/07 08:38:50;;;;;;;1.77;1.27;;;;;;;10.23;100.00;95694.38;5015064;28;20045;-71
2022/11/07 08:41:15;;;;;;;4.63;1.50;;;;;;;10.45;100.00;95689.94;5012927;28;20041;-72
2022/11/07 08:43:41;;;;;;;3.40;1.48;;;;;;;10.44;100.00;95694.41;5016672;28;20053;-75
2022/11/07 08:46:06;;;;;;;7.38;1.40;;;;;;;10.64;100.00;95693.59;5017882;28;20041;-73
2022/11/07 08:48:32;;;;;;;2.40;1.42;;;;;;;10.76;100.00;95706.50;5011696;28;20256;-71
2022/11/07 08:51:01;;;;;;;1.98;1.30;;;;;;;10.78;100.00;95704.38;5011519;28;20045;-73
2022/11/07 08:53:30;;;;;;;1.95;1.20;;;;;;;10.98;100.00;95703.56;5013570;28;20045;-73
2022/11/07 08:56:04;;;;;;;3.70;1.30;;;;;;;10.95;100.00;95703.28;4998544;28;20042;-72
2022/11/07 08:58:30;;;;;;;2.72;1.35;;;;;;;11.16;100.00;95709.31;5011467;28;20112;-72
2022/11/07 09:00:56;;;;;;;2.65;1.30;;;;;;;11.22;100.00;95703.78;5020398;28;20099;-72
2022/11/07 09:03:22;;;;;;;3.80;2.20;;;;;;;11.35;100.00;95702.41;5017764;28;20401;-73
2022/11/07 09:05:47;;;;;;;3.88;1.30;;;;;;;11.36;100.00;95697.94;5014491;28;20053;-72
2022/11/07 09:08:13;;;;;;;4.10;1.60;;;;;;;11.52;100.00;95706.56;5017759;28;20037;-72
2022/11/07 09:10:38;;;;;;;3.30;1.25;;;;;;;11.45;100.00;95696.31;5014761;28;20049;-72
2022/11/07 09:13:04;;;;;;;3.90;1.13;;;;;;;11.55;100.00;95709.47;5011487;28;20113;-71
2022/11/07 09:15:30;;;;;;;2.45;1.50;;;;;;;11.35;100.00;95712.16;5010262;28;20042;-72
2022/11/07 09:18:01;;;;;;;2.50;1.58;;;;;;;11.64;100.00;95708.88;5010096;28;20526;-73
2022/11/07 09:20:27;;;;;;;2.17;1.30;;;;;;;11.54;100.00;95710.50;5016832;28;20111;-73
2022/11/07 09:22:55;;;;;;;1.75;1.30;;;;;;;11.78;100.00;95715.16;5013974;28;20037;-72
2022/11/07 09:25:22;;;;;;;1.90;1.30;;;;;;;12.15;100.00;95713.91;5017837;28;20038;-72
2022/11/07 09:27:50;;;;;;;3.10;1.40;;;;;;;12.29;100.00;95704.31;5021190;28;20651;-72
2022/11/07 09:30:17;;;;;;;1.73;1.15;;;;;;;12.56;100.00;95708.34;5009980;28;20092;-72
2022/11/07 09:32:42;;;;;;;3.88;1.35;;;;;;;13.81;92.88;95708.66;5020816;28;20069;-72
2022/11/07 09:35:08;;;;;;;2.38;1.40;;;;;;;14.48;79.96;95711.13;5004730;28;20043;-72
2022/11/07 09:37:37;;;;;;;2.08;1.35;;;;;;;14.45;83.36;95705.63;5021987;28;20050;-74
2022/11/07 09:40:04;;;;;;;1.77;1.20;;;;;;;15.20;75.63;95711.78;5015131;28;20038;-72
2022/11/07 09:42:47;;;;;;;2.90;1.42;;;;;;;15.71;71.21;95708.16;5020549;28;20045;-72
2022/11/07 09:45:13;;;;;;;2.97;1.40;;;;;;;15.68;70.04;95708.75;5019711;28;20053;-72
2022/11/07 09:47:46;;;;;;;3.80;1.30;;;;;;;16.40;66.83;95704.53;5014401;28;20038;-72
2022/11/07 09:50:30;;;;;;;2.17;1.58;;;;;;;16.89;64.39;95709.28;5019876;28;20491;-72
2022/11/07 09:53:23;;;;;;;2.75;1.38;;;;;;;16.70;65.03;95710.22;5013967;28;20042;-72
2022/11/07 09:55:52;;;;;;;1.73;1.10;;;;;;;17.36;62.48;95704.31;5013111;28;20037;-72
2022/11/07 09:58:21;;;;;;;3.55;1.23;;;;;;;17.65;58.89;95701.09;5016635;28;20506;-72
2022/11/07 10:00:46;;;;;;;6.07;1.60;;;;;;;18.22;60.67;95701.38;5012141;28;20057;-73
2022/11/07 10:03:12;;;;;;;1.80;1.25;;;;;;;18.08;56.87;95704.19;5017369;28;20049;-73
2022/11/07 10:05:50;;;;;;;2.58;1.40;;;;;;;18.76;55.06;95693.81;5014882;28;20494;-72
2022/11/07 10:08:26;;;;;;;2.08;1.20;;;;;;;17.18;60.40;95692.81;5021447;28;20804;-73
2022/11/07 10:10:58;;;;;;;3.88;1.20;;;;;;;18.00;58.65;95695.09;5019211;28;20116;-72
2022/11/07 10:13:38;;;;;;;3.20;1.33;;;;;;;18.25;57.21;95695.44;5007694;28;20046;-73
2022/11/07 10:16:22;;;;;;;4.05;1.38;;;;;;;18.55;56.24;95690.22;5024376;28;20042;-73
2022/11/07 10:19:12;;;;;;;2.47;1.10;;;;;;;17.87;60.68;95690.66;5015517;28;20050;-71
2022/11/07 10:21:59;;;;;;;3.30;1.38;;;;;;;17.63;57.45;95691.88;4998024;28;20384;-71
2022/11/07 10:24:34;;;;;;;1.83;1.30;;;;;;;17.04;62.30;95698.25;5014937;28;20092;-71
2022/11/07 10:27:00;;;;;;;3.63;1.30;;;;;;;16.79;59.34;95703.09;5016480;28;20041;-71
2022/11/07 10:29:49;;;;;;;1.52;1.20;;;;;;;16.88;59.62;95700.53;4996701;28;20045;-71
2022/11/07 10:32:23;;;;;;;1.55;1.10;;;;;;;17.21;59.31;95707.38;5022345;28;20103;-71
2022/11/07 10:35:05;;;;;;;2.13;1.15;;;;;;;18.50;57.53;95707.97;5022239;28;20073;-77
2022/11/07 10:37:30;;;;;;;3.42;1.45;;;;;;;18.37;56.96;95692.91;5016245;28;20038;-71
2022/11/07 10:39:56;;;;;;;4.35;1.42;;;;;;;19.69;52.15;95694.06;5016626;28;20521;-70
2022/11/07 10:42:26;;;;;;;2.50;1.10;;;;;;;17.45;57.69;95691.81;5016966;28;20092;-71
2022/11/07 10:44:53;;;;;;;2.58;1.17;;;;;;;15.97;62.29;95699.69;5021124;28;20037;-70
2022/11/07 10:47:22;;;;;;;2.38;1.25;;;;;;;16.30;62.25;95691.50;5027822;28;20045;-70
2022/11/07 10:50:01;;;;;;;2.20;1.35;;;;;;;19.07;57.52;95692.78;5020177;28;20037;-70
2022/11/07 10:52:28;;;;;;;1.23;1.10;;;;;;;18.67;55.05;95687.69;5003500;28;20042;-70
2022/11/07 10:55:15;;;;;;;2.55;1.30;;;;;;;18.40;56.33;95694.94;5012351;28;20038;-71
2022/11/07 10:57:42;;;;;;;3.13;1.20;;;;;;;18.39;55.46;95684.59;5017037;28;20526;-72
2022/11/07 11:00:22;;;;;;;3.58;1.33;;;;;;;18.05;54.08;95688.84;5009840;28;20049;-73
2022/11/07 11:02:49;;;;;;;2.17;1.20;;;;;;;19.33;52.76;95683.91;5027774;28;20053;-73
2022/11/07 11:05:42;;;;;;;2.58;1.10;;;;;;;19.08;50.19;95689.03;5026623;28;20128;-73
2022/11/07 11:08:17;;;;;;;2.35;1.13;;;;;;;19.31;52.92;95678.09;5011582;28;20034;-73
2022/11/07 11:10:43;;;;;;;2.05;1.10;;;;;;;18.76;54.08;95677.81;5014596;28;20491;-74
2022/11/07 11:13:32;;;;;;;2.42;1.27;;;;;;;17.01;55.82;95688.22;5020243;28;20049;-71
2022/11/07 11:16:25;;;;;;;3.55;1.10;;;;;;;17.51;55.12;95694.34;5011048;28;20121;-71
2022/11/07 11:18:54;;;;;;;4.28;1.27;;;;;;;17.07;57.24;95679.03;5017257;28;20040;-71
2022/11/07 11:21:20;;;;;;;2.78;1.23;;;;;;;17.43;56.32;95683.38;5021058;28;20042;-72
2022/11/07 11:23:47;;;;;;;3.65;1.20;;;;;;;16.31;58.69;95682.47;5025389;28;20072;-74
2022/11/07 11:26:24;;;;;;;2.90;1.35;;;;;;;16.16;60.02;95696.09;5004462;28;20072;-74
2022/11/07 11:28:53;;;;;;;2.80;1.13;;;;;;;15.86;61.98;95695.66;5023131;28;20081;-75
2022/11/07 11:31:47;;;;;;;5.20;1.38;;;;;;;15.70;64.43;95695.97;5010952;28;20077;-73
2022/11/07 11:34:20;;;;;;;2.20;1.20;;;;;;;16.31;64.57;95687.78;5020801;28;20041;-74
2022/11/07 11:37:05;;;;;;;2.13;1.20;;;;;;;15.69;62.14;95689.09;5021871;28;20071;-74
2022/11/07 11:39:43;;;;;;;2.67;1.08;;;;;;;15.81;62.56;95690.50;5014553;28;20042;-73
2022/11/07 11:42:25;;;;;;;4.45;1.27;;;;;;;16.67;58.55;95673.63;5026005;28;20601;-73
2022/11/07 11:44:56;;;;;;;2.10;1.30;;;;;;;16.61;59.40;95674.84;5013673;28;20450;-74
2022/11/07 11:47:27;;;;;;;2.85;1.30;;;;;;;17.25;57.69;95671.09;5014595;28;20040;-74